Time,TemperatureF,DewpointF,PressureIn,WindDirection,WindDirectionDegrees,WindSpeedMPH,WindSpeedGustMPH,Humidity,HourlyPrecipIn,Conditions,Clouds,dailyrainin,SoftwareType,DateUTC
2013-02-26 00:06:00,73.2,-99.9,29.74,SSW,195,3.0,-999.0,0,-99.99,,,0.00,weatherlink.com 1.10,2013-02-26 05:06:00,
2013-02-26 00:21:00,73.2,-99.9,29.74,South,188,3.0,-999.0,0,-99.99,,,0.00,weatherlink.com 1.10,2013-02-26 05:21:00,
2013-02-26 00:36:00,73.2,-99.9,29.74,SSW,201,5.0,-999.0,0,-99.99,,,0.00,weatherlink.com 1.10,2013-02-26 05:36:00,
2013-02-26 00:51:00,73.0,-99.9,29.73,SSW,204,3.0,-999.0,0,-99.99,,,0.00,weatherlink.com 1.10,2013-02-26 05:51:00,
2013-02-26 01:06:00,72.8,-99.9,29.72,SW,217,5.0,-999.0,0,-99.99,,,0.00,weatherlink.com 1.10,2013-02-26 06:06:00,
2013-02-26 01:22:00,72.7,-99.9,29.72,SSW,203,3.0,-999.0,0,-99.99,,,0.00,weatherlink.com 1.10,2013-02-26 06:22:00,
2013-02-26 02:07:00,72.7,-99.9,29.72,WSW,247,4.0,-999.0,0,-99.99,,,0.00,weatherlink.com 1.10,2013-02-26 07:07:00,
2013-02-26 02:22:00,72.7,-99.9,29.72,SW,214,4.0,-999.0,0,-99.99,,,0.00,weatherlink.com 1.10,2013-02-26 07:22:00,
2013-02-26 02:37:00,72.8,-99.9,29.72,SSW,195,5.0,-999.0,0,-99.99,,,0.00,weatherlink.com 1.10,2013-02-26 07:37:00,
2013-02-26 02:52:00,73.0,-99.9,29.71,SSW,198,7.0,-999.0,0,-99.99,,,0.00,weatherlink.com 1.10,2013-02-26 07:52:00,
2013-02-26 03:22:00,73.2,-99.9,29.71,SSW,200,4.0,-999.0,0,-99.99,,,0.00,weatherlink.com 1.10,2013-02-26 08:22:00,
2013-02-26 03:37:00,73.0,-99.9,29.71,SSW,205,3.0,-999.0,0,-99.99,,,0.00,weatherlink.com 1.10,2013-02-26 08:37:00,
2013-02-26 03:52:00,73.0,-99.9,29.71,South,184,5.0,-999.0,0,-99.99,,,0.00,weatherlink.com 1.10,2013-02-26 08:52:00,
2013-02-26 04:07:00,73.0,-99.9,29.71,SW,219,5.0,-999.0,0,-99.99,,,0.00,weatherlink.com 1.10,2013-02-26 09:07:00,
2013-02-26 04:22:00,73.3,-99.9,29.70,SSW,206,5.0,-999.0,0,-99.99,,,0.00,weatherlink.com 1.10,2013-02-26 09:22:00,
2013-02-26 05:08:00,73.3,-99.9,29.69,South,188,2.0,-999.0,0,-99.99,,,0.00,weatherlink.com 1.10,2013-02-26 10:08:00,
2013-02-26 05:23:00,73.3,-99.9,29.71,SSW,209,1.0,-999.0,0,-99.99,,,0.00,weatherlink.com 1.10,2013-02-26 10:23:00,
2013-02-26 05:38:00,73.2,-99.9,29.72,South,186,0.0,-999.0,0,-99.99,,,0.00,weatherlink.com 1.10,2013-02-26 10:38:00,
2013-02-26 05:53:00,73.3,-99.9,29.72,SW,234,2.0,-999.0,0,-99.99,,,0.00,weatherlink.com 1.10,2013-02-26 10:53:00,
2013-02-26 06:08:00,73.3,-99.9,29.72,SSW,200,5.0,-999.0,0,-99.99,,,0.00,weatherlink.com 1.10,2013-02-26 11:08:00,
2013-02-26 06:38:00,73.5,-99.9,29.72,SSW,200,3.0,-999.0,0,-99.99,,,0.00,weatherlink.com 1.10,2013-02-26 11:38:00,
2013-02-26 06:53:00,73.5,-99.9,29.73,SSW,195,4.0,-999.0,0,-99.99,,,0.00,weatherlink.com 1.10,2013-02-26 11:53:00,
2013-02-26 07:23:00,73.5,-99.9,29.72,SW,228,4.0,-999.0,0,-99.99,,,0.00,weatherlink.com 1.10,2013-02-26 12:23:00,
2013-02-26 07:38:00,73.7,-99.9,29.72,SSW,193,5.0,-999.0,0,-99.99,,,0.00,weatherlink.com 1.10,2013-02-26 12:38:00,
2013-02-26 07:53:00,73.9,-99.9,29.72,SSW,203,5.0,-999.0,0,-99.99,,,0.00,weatherlink.com 1.10,2013-02-26 12:53:00,
2013-02-26 08:09:00,74.4,-99.9,29.72,SSW,200,8.0,-999.0,-999,-99.99,,,0.00,weatherlink.com 1.10,2013-02-26 13:09:00,
2013-02-26 08:24:00,75.1,-99.9,29.73,WSW,242,7.0,-999.0,0,-99.99,,,0.00,weatherlink.com 1.10,2013-02-26 13:24:00,
2013-02-26 08:54:00,76.0,-11.0,29.74,SSW,207,13.0,-999.0,3,-99.99,,,0.00,weatherlink.com 1.10,2013-02-26 13:54:00,
2013-02-26 09:09:00,76.5,4.0,29.74,South,187,17.0,-999.0,6,-99.99,,,0.00,weatherlink.com 1.10,2013-02-26 14:09:00,
2013-02-26 09:24:00,77.0,11.0,29.74,SSW,204,11.0,-999.0,8,-99.99,,,0.00,weatherlink.com 1.10,2013-02-26 14:24:00,
2013-02-26 09:39:00,77.0,14.0,29.75,SSW,200,12.0,-999.0,9,-99.99,,,0.00,weatherlink.com 1.10,2013-02-26 14:39:00,
2013-02-26 10:09:00,78.6,37.0,29.73,SSW,200,21.0,-999.0,22,-99.99,,,0.00,weatherlink.com 1.10,2013-02-26 15:09:00,
2013-02-26 10:24:00,79.2,41.0,29.73,SW,221,12.0,-999.0,26,-99.99,,,0.00,weatherlink.com 1.10,2013-02-26 15:24:00,
2013-02-26 10:39:00,79.6,45.0,29.74,SSW,212,10.0,-999.0,29,-99.99,,,0.00,weatherlink.com 1.10,2013-02-26 15:39:00,
2013-02-26 10:54:00,79.8,47.0,29.74,SW,231,16.0,-999.0,32,-99.99,,,0.00,weatherlink.com 1.10,2013-02-26 15:54:00,
2013-02-26 11:09:00,80.1,49.0,29.74,SSW,212,15.0,-999.0,34,-99.99,,,0.00,weatherlink.com 1.10,2013-02-26 16:09:00,
2013-02-26 11:24:00,80.3,46.0,29.75,WSW,256,11.0,-999.0,30,-99.99,,,0.00,weatherlink.com 1.10,2013-02-26 16:24:00,
2013-02-26 11:40:00,79.9,50.0,29.75,SW,231,9.0,-999.0,35,-99.99,,,0.00,weatherlink.com 1.10,2013-02-26 16:40:00,
2013-02-26 11:55:00,79.6,46.0,29.75,SSW,213,19.0,-999.0,31,-99.99,,,0.00,weatherlink.com 1.10,2013-02-26 16:55:00,
2013-02-26 12:10:00,79.4,45.0,29.74,SSW,213,9.0,-999.0,30,-99.99,,,0.00,weatherlink.com 1.10,2013-02-26 17:10:00,
2013-02-26 12:25:00,79.6,45.0,29.71,SSW,205,9.0,-999.0,29,-99.99,,,0.00,weatherlink.com 1.10,2013-02-26 17:25:00,
2013-02-26 12:40:00,79.6,45.0,29.72,South,190,14.0,-999.0,29,-99.99,,,0.00,weatherlink.com 1.10,2013-02-26 17:40:00,
2013-02-26 12:55:00,79.6,44.0,29.71,SSW,192,6.0,-999.0,28,-99.99,,,0.00,weatherlink.com 1.10,2013-02-26 17:55:00,
2013-02-26 13:10:00,79.9,47.0,29.70,SSW,212,13.0,-999.0,31,-99.99,,,0.00,weatherlink.com 1.10,2013-02-26 18:10:00,
2013-02-26 13:25:00,80.3,49.0,29.69,SSW,207,10.0,-999.0,34,-99.99,,,0.00,weatherlink.com 1.10,2013-02-26 18:25:00,
2013-02-26 13:40:00,80.5,51.0,29.69,SW,230,11.0,-999.0,36,-99.99,,,0.00,weatherlink.com 1.10,2013-02-26 18:40:00,
2013-02-26 13:55:00,80.7,51.0,29.69,SSW,197,3.0,-999.0,36,-99.99,,,0.00,weatherlink.com 1.10,2013-02-26 18:55:00,
2013-02-26 14:10:00,80.7,51.0,29.69,SW,229,3.0,-999.0,35,-99.99,,,0.00,weatherlink.com 1.10,2013-02-26 19:10:00,
2013-02-26 14:25:00,81.1,54.0,29.68,North,-999,0.0,-999.0,39,-99.99,,,0.00,weatherlink.com 1.10,2013-02-26 19:25:00,
2013-02-26 14:55:00,81.4,56.0,29.68,SW,233,6.0,-999.0,42,-99.99,,,0.00,weatherlink.com 1.10,2013-02-26 19:55:00,
2013-02-26 15:11:00,81.2,55.0,29.68,SW,235,7.0,-999.0,41,-99.99,,,0.00,weatherlink.com 1.10,2013-02-26 20:11:00,
2013-02-26 15:26:00,82.0,61.0,29.68,SW,236,5.0,-999.0,49,-99.99,,,0.00,weatherlink.com 1.10,2013-02-26 20:26:00,
2013-02-26 15:41:00,81.6,62.0,29.68,SW,236,16.0,-999.0,51,-99.99,,,0.00,weatherlink.com 1.10,2013-02-26 20:41:00,
2013-02-26 15:56:00,81.2,61.0,29.68,WSW,247,11.0,-999.0,51,-99.99,,,0.00,weatherlink.com 1.10,2013-02-26 20:56:00,
2013-02-26 16:11:00,81.2,59.0,29.69,WSW,249,15.0,-999.0,47,-99.99,,,0.00,weatherlink.com 1.10,2013-02-26 21:11:00,
2013-02-26 16:26:00,79.6,46.0,29.69,West,269,11.0,-999.0,31,-99.99,,,0.00,weatherlink.com 1.10,2013-02-26 21:26:00,
2013-02-26 16:41:00,77.4,26.0,29.70,West,263,5.0,-999.0,15,-99.99,,,0.00,weatherlink.com 1.10,2013-02-26 21:41:00,
2013-02-26 16:56:00,76.7,18.0,29.70,WSW,250,12.0,-999.0,11,-99.99,,,0.00,weatherlink.com 1.10,2013-02-26 21:56:00,
2013-02-26 17:11:00,76.7,18.0,29.69,WSW,245,5.0,-999.0,11,-99.99,,,0.00,weatherlink.com 1.10,2013-02-26 22:11:00,
2013-02-26 17:26:00,77.2,26.0,29.69,WSW,255,8.0,-999.0,15,-99.99,,,0.00,weatherlink.com 1.10,2013-02-26 22:26:00,
2013-02-26 17:41:00,76.8,24.0,29.69,WSW,243,7.0,-999.0,14,-99.99,,,0.00,weatherlink.com 1.10,2013-02-26 22:41:00,
2013-02-26 17:56:00,76.7,22.0,29.70,WSW,238,10.0,-999.0,13,-99.99,,,0.00,weatherlink.com 1.10,2013-02-26 22:56:00,
2013-02-26 18:11:00,76.8,27.0,29.70,WSW,237,9.0,-999.0,16,-99.99,,,0.00,weatherlink.com 1.10,2013-02-26 23:11:00,
2013-02-26 18:27:00,76.8,27.0,29.70,WSW,240,12.0,-999.0,16,-99.99,,,0.00,weatherlink.com 1.10,2013-02-26 23:27:00,
2013-02-26 18:42:00,76.3,20.0,29.70,WSW,239,9.0,-999.0,12,-99.99,,,0.00,weatherlink.com 1.10,2013-02-26 23:42:00,
2013-02-26 18:57:00,76.0,18.0,29.71,WSW,239,7.0,-999.0,11,-99.99,,,0.00,weatherlink.com 1.10,2013-02-26 23:57:00,
2013-02-26 19:12:00,76.0,16.0,29.71,SW,232,6.0,-999.0,10,-99.99,,,0.00,weatherlink.com 1.10,2013-02-27 00:12:00,
2013-02-26 19:27:00,75.8,15.0,29.71,WSW,254,13.0,-999.0,10,-99.99,,,0.00,weatherlink.com 1.10,2013-02-27 00:27:00,
2013-02-26 19:42:00,75.3,10.0,29.72,WSW,248,13.0,-999.0,8,-99.99,,,0.00,weatherlink.com 1.10,2013-02-27 00:42:00,
2013-02-26 19:57:00,74.9,-1.0,29.74,WSW,241,11.0,-999.0,5,-99.99,,,0.00,weatherlink.com 1.10,2013-02-27 00:57:00,
2013-02-26 20:12:00,74.4,-6.0,29.74,WSW,245,9.0,-999.0,4,-99.99,,,0.00,weatherlink.com 1.10,2013-02-27 01:12:00,
2013-02-26 20:27:00,74.0,-12.0,29.75,WSW,245,8.0,-999.0,3,-99.99,,,0.00,weatherlink.com 1.10,2013-02-27 01:27:00,
2013-02-26 20:42:00,73.9,-20.0,29.75,WSW,244,7.0,-999.0,2,-99.99,,,0.00,weatherlink.com 1.10,2013-02-27 01:42:00,
2013-02-26 20:57:00,73.7,-33.0,29.75,WSW,240,7.0,-999.0,1,-99.99,,,0.00,weatherlink.com 1.10,2013-02-27 01:57:00,
2013-02-26 21:12:00,73.5,-33.0,29.76,WSW,242,6.0,-999.0,1,-99.99,,,0.00,weatherlink.com 1.10,2013-02-27 02:12:00,
2013-02-26 21:27:00,73.0,-99.9,29.77,WSW,246,9.0,-999.0,0,-99.99,,,0.00,weatherlink.com 1.10,2013-02-27 02:27:00,
2013-02-26 21:42:00,72.7,-99.9,29.77,WSW,242,8.0,-999.0,0,-99.99,,,0.00,weatherlink.com 1.10,2013-02-27 02:42:00,
2013-02-26 21:58:00,72.0,-99.9,29.77,WSW,252,7.0,-999.0,-999,-99.99,,,0.00,weatherlink.com 1.10,2013-02-27 02:58:00,
2013-02-26 22:43:00,70.6,-99.9,29.78,WSW,248,7.0,-999.0,0,-99.99,,,0.00,weatherlink.com 1.10,2013-02-27 03:43:00,
2013-02-26 22:58:00,70.3,-99.9,29.78,WSW,243,9.0,-999.0,-999,-99.99,,,0.00,weatherlink.com 1.10,2013-02-27 03:58:00,
2013-02-26 23:13:00,69.8,-99.9,29.77,WSW,243,5.0,-999.0,0,-99.99,,,0.00,weatherlink.com 1.10,2013-02-27 04:13:00,
2013-02-26 23:28:00,69.6,-99.9,29.78,WSW,240,9.0,-999.0,0,-99.99,,,0.00,weatherlink.com 1.10,2013-02-27 04:28:00,
2013-02-26 23:43:00,69.3,-99.9,29.78,WSW,244,6.0,-999.0,0,-99.99,,,0.00,weatherlink.com 1.10,2013-02-27 04:43:00,
2013-02-26 23:58:00,68.6,-99.9,29.79,SW,233,10.0,-999.0,0,-99.99,,,0.00,weatherlink.com 1.10,2013-02-27 04:58:00,